Airfield :
LOGIN :

Register | Disclaimer

   EN    FR    IT 

 










Legend :    VFR   Marginal VFR   IFR   Intensive IFR   Very Intensive IFR
Visi :
Ceiling :
>= 8 km
>= 3000ft
5 to 8 km
1000 to 3000 ft
1500m to 5 km
500 to 1000 ft
800 to 1500m
200 to 500 ft
< 800m
< 200 ft
Symbols :   Thunderstorms  Fog  Heavy snow  Heavy precipitations  Wind > 20 kt
SIGMETs :     Misc.  Thunderstorms  Icing  Turbulence  Mountain Waves  Volcanic Ashes






- Airport Elevation : 844 ft
- IATA code : OSR


LKMT - Ostrava-Mosnov

CURRENT METAR :
  • 180400Z 08003KT 020V120 CAVOK 18/16 Q1017 NOSIG

EXPIRED METARs :
  • 180330Z 29010KT 270V330 9999 FEW025CB 17/16 Q1018 RESHRA BECMG CAVOK
  • 180300Z 19006KT 150V210 9999 SHRA FEW025CB 18/16 Q1017 TEMPO NSW
  • 180230Z 21004KT 9999 SHRA VCTS SCT019CB 18/16 Q1017 TEMPO -TSRA
  • 180200Z 26005KT 230V290 9999 -SHRA FEW025CB BKN046 18/16 Q1017 TEMPO -TSRA
  • 180130Z 19004KT 9999 FEW030CB 19/15 Q1017 TEMPO TSRA
  • 180100Z 18004KT 9999 FEW046TCU 19/16 Q1017 NOSIG
  • 180030Z 24005KT 9999 -SHRA FEW046TCU 18/16 Q1017 NOSIG
  • 180000Z 23005KT CAVOK 18/15 Q1017 NOSIG
  • 172330Z 22002KT CAVOK 19/15 Q1017 NOSIG

TAF TAF LKMT
Valid from the 18 at 00:00 until the 19 at 00:00 UTC


172300Z 1800/1900 21006KT CAVOK
TEMPO 1800/1804 8000 -TSRA SCT050CB



MET'MAP, your aeronautical weather chart ! - Copyright ORBIFLY December 2007 - Disclaimer

ORBIFLY MET'MAP TEAM :

Programming & Development : Alexandra Zaïnal
Original concept : Baudouin d'Aumeries
Technical & hardware support : Manuel Goepfert
Assistance : Marc-Olivier Méhu




SOURCES & CREDITS :

   NOAA